This is the latest recevied weather packets stored in our database for station/object KN6ZYR. If no packets are shown the sender has not sent any weather packets the latest 10 day(s).
| Time | Temp. | Humidity | Pressure | Rain* | Wind** | Luminosity | Snow |
|---|---|---|---|---|---|---|---|
| 1778074108 | 11.67° C | 58% | 1022.4 hPa | 0 mm | - | 23 W/m² | - |
| 1778073805 | 10.56° C | 64% | 1022.3 hPa | 0 mm | - | 20 W/m² | - |
| 1778073503 | 10.56° C | 67% | 1022.4 hPa | 0 mm | - | 18 W/m² | - |
| 1778073199 | 11.67° C | 62% | 1022.1 hPa | 0 mm | - | 12 W/m² | - |
| 1778072896 | 11.67° C | 59% | 1022.3 hPa | 0 mm | - | 9 W/m² | - |
| 1778072592 | 11.67° C | 60% | 1022.2 hPa | 0 mm | - | 7 W/m² | - |
| 1778072290 | 11.67° C | 61% | 1022.3 hPa | 0 mm | - | 5 W/m² | - |
| 1778071988 | 11.67° C | 62% | 1021.9 hPa | 0 mm | - | 3 W/m² | - |
| 1778071687 | 11.11° C | 64% | 1022.1 hPa | 0 mm | - | 2 W/m² | - |
| 1778071383 | 10.56° C | 67% | 1021.9 hPa | 0 mm | - | 1 W/m² | - |
| 1778071081 | 9.44° C | 74% | 1021.7 hPa | 0 mm | - | 0 W/m² | - |
| 1778070779 | 9.44° C | 74% | 1021.8 hPa | 0 mm | - | 0 W/m² | - |
| 1778070476 | 9.44° C | 73% | 1021.7 hPa | 0 mm | - | 0 W/m² | - |
| 1778070173 | 9.44° C | 74% | 1021.7 hPa | 0 mm | - | 0 W/m² | - |
| 1778069871 | 9.44° C | 73% | 1021.6 hPa | 0 mm | - | 0 W/m² | - |
| 1778069568 | 10° C | 72% | 1021.7 hPa | 0 mm | - | 0 W/m² | - |
| 1778069265 | 10° C | 71% | 1021.5 hPa | 0 mm | - | 0 W/m² | - |
| 1778068963 | 10° C | 70% | 1021.4 hPa | 0 mm | - | 0 W/m² | - |
| 1778068660 | 10° C | 71% | 1021.6 hPa | 0 mm | - | 0 W/m² | - |
| 1778068358 | 10° C | 72% | 1021.5 hPa | 0 mm | - | 0 W/m² | - |
| 1778068056 | 10° C | 72% | 1021.4 hPa | 0 mm | - | 0 W/m² | - |
| 1778067753 | 10° C | 71% | 1021.3 hPa | 0 mm | - | 0 W/m² | - |
| 1778067452 | 10° C | 72% | 1021.5 hPa | 0 mm | - | 0 W/m² | - |
| 1778067149 | 10° C | 72% | 1021.2 hPa | 0 mm | - | 0 W/m² | - |
| 1778066845 | 10° C | 71% | 1021.3 hPa | 0 mm | - | 0 W/m² | - |
* Rain latest hour (hover to see other rain measurements)
** Current wind speed in m/s (hover to see current wind gust speed)